Time;durP1;ratioP1;P1;durP2;ratioP2;P2;SDS_P1;SDS_P2;PMS_P1;PMS_P2;Temp;Humidity;BMP_temperature;BMP_pressure;BME280_temperature;BME280_humidity;BME280_pressure;Samples;Min_cycle;Max_cycle;Signal;HPM_P1;HPM_P2
2024/03/17 00:00:22;;;;;;;28.90;17.10;;;14.50;92.80;;;;;;5094101;28;20047;-90
2024/03/17 00:02:49;;;;;;;26.02;16.80;;;14.40;92.90;;;;;;5063197;28;20025;-89
2024/03/17 00:05:15;;;;;;;25.88;17.13;;;14.40;92.80;;;;;;5080661;28;20032;-88
2024/03/17 00:07:40;;;;;;;27.45;16.95;;;14.40;92.80;;;;;;5093372;28;20078;-87
2024/03/17 00:10:07;;;;;;;26.50;17.40;;;14.40;92.70;;;;;;5081811;28;20496;-87
2024/03/17 00:12:33;;;;;;;28.27;16.35;;;14.30;92.80;;;;;;5078146;28;20039;-86
2024/03/17 00:14:59;;;;;;;24.83;17.08;;;14.30;93.10;;;;;;5083640;28;20029;-88
2024/03/17 00:17:25;;;;;;;26.27;15.82;;;14.30;93.00;;;;;;5083090;28;20041;-87
2024/03/17 00:19:50;;;;;;;29.92;16.58;;;14.30;93.00;;;;;;5076715;28;20476;-87
2024/03/17 00:22:16;;;;;;;25.48;16.45;;;14.30;93.00;;;;;;5077156;28;20032;-87
2024/03/17 00:24:43;;;;;;;30.52;15.63;;;14.30;92.90;;;;;;5079387;28;20064;-87
2024/03/17 00:27:11;;;;;;;32.17;17.27;;;14.30;92.90;;;;;;5080492;28;20090;-87
2024/03/17 00:29:37;;;;;;;25.70;17.33;;;14.30;92.90;;;;;;5077151;28;20408;-88
2024/03/17 00:32:03;;;;;;;26.98;18.25;;;14.30;92.90;;;;;;5076121;28;20029;-85
2024/03/17 00:34:29;;;;;;;25.80;17.90;;;14.40;93.00;;;;;;5076225;28;20032;-87
2024/03/17 00:36:54;;;;;;;25.63;17.85;;;14.20;92.90;;;;;;5076233;28;20053;-87
2024/03/17 00:39:20;;;;;;;27.00;18.55;;;14.20;93.00;;;;;;5076035;28;20068;-88
2024/03/17 00:41:46;;;;;;;28.90;18.17;;;14.10;92.90;;;;;;5076136;28;20039;-87
2024/03/17 00:44:11;;;;;;;31.55;19.42;;;14.10;93.10;;;;;;5076704;28;20036;-87
2024/03/17 00:46:37;;;;;;;31.98;20.30;;;14.10;93.30;;;;;;5081571;28;20044;-85
2024/03/17 00:49:03;;;;;;;33.30;21.17;;;14.10;93.20;;;;;;5071604;28;20041;-85
2024/03/17 00:51:28;;;;;;;29.67;18.95;;;14.20;93.10;;;;;;5075818;28;20446;-83
2024/03/17 00:53:56;;;;;;;31.55;18.83;;;14.10;92.90;;;;;;5074828;28;20396;-84
2024/03/17 00:56:22;;;;;;;29.52;18.45;;;14.00;92.90;;;;;;5074715;28;20044;-84
2024/03/17 00:58:51;;;;;;;27.23;17.67;;;13.90;93.00;;;;;;5056606;28;20461;-85
2024/03/17 01:01:17;;;;;;;27.23;17.98;;;13.90;93.10;;;;;;5074552;28;20028;-85
2024/03/17 01:03:42;;;;;;;35.00;19.48;;;13.90;93.00;;;;;;5074611;28;20043;-86
2024/03/17 01:06:08;;;;;;;34.15;19.73;;;13.90;93.00;;;;;;5074821;28;20029;-87
2024/03/17 01:08:34;;;;;;;30.23;18.67;;;13.90;92.90;;;;;;5074512;28;20392;-86
2024/03/17 01:11:01;;;;;;;30.17;20.00;;;13.90;92.90;;;;;;5074819;28;20033;-85
2024/03/17 01:13:26;;;;;;;26.23;19.35;;;14.00;92.90;;;;;;5079763;28;20021;-86
2024/03/17 01:15:53;;;;;;;30.10;18.83;;;13.90;92.80;;;;;;5060477;28;20408;-85
2024/03/17 01:18:18;;;;;;;31.23;19.40;;;14.00;92.80;;;;;;5074783;28;20151;-86
2024/03/17 01:20:45;;;;;;;32.13;21.38;;;13.90;92.80;;;;;;5056049;28;20031;-85
2024/03/17 01:23:10;;;;;;;28.25;20.05;;;13.90;92.70;;;;;;5074829;28;20115;-86
2024/03/17 01:25:36;;;;;;;30.80;20.85;;;14.00;92.80;;;;;;5074597;28;20554;-86
2024/03/17 01:28:06;;;;;;;35.30;22.50;;;13.90;92.70;;;;;;5074056;28;20032;-85
2024/03/17 01:30:33;;;;;;;30.77;20.90;;;13.90;92.80;;;;;;5075137;28;20040;-86
2024/03/17 01:33:00;;;;;;;35.53;21.35;;;13.80;92.80;;;;;;5057619;28;20025;-85
2024/03/17 01:35:26;;;;;;;32.55;22.38;;;13.70;92.80;;;;;;5075142;28;20043;-85
2024/03/17 01:37:52;;;;;;;38.25;22.67;;;13.70;92.90;;;;;;5083717;28;20044;-86
2024/03/17 01:40:18;;;;;;;36.25;23.40;;;13.70;93.00;;;;;;5073392;28;20044;-85
2024/03/17 01:42:43;;;;;;;30.95;21.98;;;13.70;93.00;;;;;;5068300;28;20048;-86
2024/03/17 01:45:29;;;;;;;36.92;22.70;;;13.60;92.80;;;;;;5080440;28;20369;-84
2024/03/17 01:47:59;;;;;;;32.58;22.77;;;13.60;93.10;;;;;;5089804;28;20039;-84
2024/03/17 01:50:28;;;;;;;32.88;22.25;;;13.50;93.00;;;;;;5077161;28;20392;-84
2024/03/17 01:52:56;;;;;;;37.92;23.45;;;13.40;93.10;;;;;;5082033;28;20558;-84
2024/03/17 01:55:23;;;;;;;29.50;20.73;;;13.40;93.10;;;;;;5077801;28;20450;-84
2024/03/17 01:57:52;;;;;;;38.72;22.50;;;13.40;93.10;;;;;;5075419;28;20024;-83
2024/03/17 02:00:18;;;;;;;38.00;21.83;;;13.50;93.20;;;;;;5073367;28;20033;-84
2024/03/17 02:02:43;;;;;;;27.95;20.77;;;13.40;93.00;;;;;;5074174;28;20029;-84
2024/03/17 02:05:10;;;;;;;29.67;19.75;;;13.50;93.00;;;;;;5073697;28;20036;-84
2024/03/17 02:07:35;;;;;;;33.35;20.40;;;13.50;93.00;;;;;;5074902;28;20024;-84
2024/03/17 02:10:03;;;;;;;31.45;20.70;;;13.50;92.90;;;;;;5073835;28;20127;-83
2024/03/17 02:12:30;;;;;;;28.88;19.42;;;13.60;93.10;;;;;;5074135;28;20507;-83
2024/03/17 02:14:58;;;;;;;27.00;19.58;;;13.60;92.90;;;;;;5073627;28;20036;-84
2024/03/17 02:17:25;;;;;;;27.42;19.08;;;13.60;92.80;;;;;;5073437;28;20060;-84
2024/03/17 02:19:52;;;;;;;30.20;20.30;;;13.50;92.70;;;;;;5073523;28;20122;-84
2024/03/17 02:22:17;;;;;;;32.13;20.23;;;13.50;92.70;;;;;;5073901;28;20491;-85
2024/03/17 02:24:44;;;;;;;25.63;19.80;;;13.50;92.70;;;;;;5073899;28;20037;-84
2024/03/17 02:27:10;;;;;;;28.85;20.70;;;13.50;92.90;;;;;;5073153;28;20393;-85
2024/03/17 02:29:36;;;;;;;28.05;20.70;;;13.40;92.80;;;;;;5072848;28;20044;-84
2024/03/17 02:32:07;;;;;;;29.83;22.63;;;13.50;93.00;;;;;;5073009;28;20031;-83
2024/03/17 02:34:34;;;;;;;33.42;22.10;;;13.50;92.90;;;;;;5072779;28;20396;-84
2024/03/17 02:37:00;;;;;;;34.63;23.13;;;13.40;92.90;;;;;;5072925;28;20080;-83
2024/03/17 02:39:35;;;;;;;30.95;22.42;;;13.30;92.90;;;;;;5072893;28;20032;-85
2024/03/17 02:42:09;;;;;;;30.33;22.38;;;13.20;93.10;;;;;;5072720;28;20033;-83
2024/03/17 02:44:36;;;;;;;28.42;22.45;;;13.10;93.50;;;;;;5054629;28;20040;-84
2024/03/17 02:47:08;;;;;;;33.22;22.98;;;13.10;93.30;;;;;;5072551;28;20107;-84
2024/03/17 02:49:39;;;;;;;30.08;22.15;;;13.00;93.30;;;;;;5072271;28;20036;-86
2024/03/17 02:52:09;;;;;;;30.48;23.50;;;13.00;93.40;;;;;;5074326;28;20499;-85
2024/03/17 02:54:35;;;;;;;29.00;22.98;;;13.00;93.50;;;;;;5083222;28;20032;-83
2024/03/17 02:57:02;;;;;;;32.33;22.73;;;12.90;93.40;;;;;;5077589;28;20033;-84
2024/03/17 02:59:28;;;;;;;31.33;21.25;;;12.90;93.50;;;;;;5072694;28;20032;-85
2024/03/17 03:01:55;;;;;;;28.48;19.55;;;12.80;93.40;;;;;;5072973;28;20028;-85
2024/03/17 03:04:21;;;;;;;33.30;20.77;;;12.80;93.60;;;;;;5072798;28;20503;-84
2024/03/17 03:06:46;;;;;;;27.92;19.27;;;12.80;93.50;;;;;;5072922;28;20060;-83
2024/03/17 03:09:13;;;;;;;26.23;19.92;;;12.80;93.50;;;;;;5073856;28;20040;-84
2024/03/17 03:11:42;;;;;;;25.48;18.95;;;12.90;93.30;;;;;;5073855;28;20032;-83
2024/03/17 03:14:08;;;;;;;27.75;19.30;;;12.80;93.30;;;;;;5076556;28;20375;-83
2024/03/17 03:16:34;;;;;;;23.83;18.10;;;12.90;93.40;;;;;;5078079;28;20108;-83
2024/03/17 03:19:00;;;;;;;34.53;19.15;;;12.90;93.30;;;;;;5085402;28;20043;-83
2024/03/17 03:21:26;;;;;;;23.30;17.52;;;13.00;93.20;;;;;;5089393;28;20032;-84
2024/03/17 03:23:52;;;;;;;23.98;17.40;;;13.00;93.10;;;;;;5098341;28;20036;-84
2024/03/17 03:26:18;;;;;;;22.65;16.95;;;13.00;93.00;;;;;;5093567;28;20028;-82
2024/03/17 03:28:44;;;;;;;25.95;17.95;;;13.00;93.00;;;;;;5085213;28;20033;-83
2024/03/17 03:31:13;;;;;;;23.30;16.98;;;13.00;93.10;;;;;;5078130;28;20119;-83
2024/03/17 03:33:42;;;;;;;27.08;17.40;;;12.90;93.00;;;;;;5081379;28;20048;-82
2024/03/17 03:36:12;;;;;;;26.05;16.73;;;12.90;93.20;;;;;;5086886;28;20033;-82
2024/03/17 03:38:38;;;;;;;25.15;14.70;;;12.80;93.20;;;;;;5082425;28;20109;-83
2024/03/17 03:41:14;;;;;;;21.80;15.48;;;12.70;93.30;;;;;;5077106;28;20040;-84
2024/03/17 03:43:39;;;;;;;22.27;15.50;;;12.70;93.20;;;;;;5079371;28;20396;-84
2024/03/17 03:46:07;;;;;;;24.17;15.13;;;12.60;93.20;;;;;;5083861;28;20103;-82
2024/03/17 03:48:34;;;;;;;23.13;15.52;;;12.50;93.20;;;;;;5094810;28;20033;-81
2024/03/17 03:51:06;;;;;;;20.83;15.57;;;12.50;93.30;;;;;;5081792;28;20139;-81
2024/03/17 03:53:35;;;;;;;22.95;16.02;;;12.40;93.20;;;;;;5057273;28;20458;-80
2024/03/17 03:56:06;;;;;;;22.73;15.13;;;12.40;93.40;;;;;;5075830;28;20116;-81
2024/03/17 03:58:34;;;;;;;25.83;16.45;;;12.40;93.60;;;;;;5075626;28;20067;-82
2024/03/17 04:01:03;;;;;;;25.52;15.70;;;12.40;93.60;;;;;;5075536;28;20386;-80
2024/03/17 04:03:29;;;;;;;28.52;17.00;;;12.30;93.80;;;;;;5075447;28;20025;-82
2024/03/17 04:06:05;;;;;;;32.00;17.85;;;12.40;93.90;;;;;;5075054;28;20029;-81
2024/03/17 04:08:32;;;;;;;29.58;16.38;;;12.30;93.60;;;;;;5074972;28;20067;-82
2024/03/17 04:10:58;;;;;;;27.27;16.77;;;12.30;94.20;;;;;;5075048;28;20044;-82
2024/03/17 04:13:23;;;;;;;30.95;17.83;;;12.30;94.30;;;;;;5075184;28;20029;-83
2024/03/17 04:15:49;;;;;;;27.83;17.58;;;12.30;94.40;;;;;;5075202;28;20411;-82
2024/03/17 04:18:17;;;;;;;25.00;15.98;;;12.30;94.50;;;;;;5085044;22;20415;-81
2024/03/17 04:20:43;;;;;;;26.85;16.80;;;12.30;94.60;;;;;;5079785;28;20035;-81
2024/03/17 04:23:08;;;;;;;30.55;16.00;;;12.30;94.70;;;;;;5076184;28;20446;-82
2024/03/17 04:25:34;;;;;;;27.15;15.38;;;12.40;94.70;;;;;;5075314;28;20024;-83
2024/03/17 04:28:00;;;;;;;24.52;15.85;;;12.30;94.50;;;;;;5076091;28;20033;-84
2024/03/17 04:30:25;;;;;;;23.65;15.93;;;12.30;94.70;;;;;;5077151;28;20033;-84
2024/03/17 04:32:52;;;;;;;23.50;14.68;;;12.20;94.60;;;;;;5076301;28;20041;-83
2024/03/17 04:35:17;;;;;;;24.70;15.95;;;12.20;94.90;;;;;;5076609;28;20036;-83
2024/03/17 04:37:43;;;;;;;25.15;15.70;;;12.20;95.00;;;;;;5075259;28;20041;-82
2024/03/17 04:40:09;;;;;;;24.27;15.55;;;12.20;94.90;;;;;;5075226;28;20375;-83
2024/03/17 04:42:35;;;;;;;23.27;14.98;;;12.20;94.60;;;;;;5075495;28;20078;-81
2024/03/17 04:45:01;;;;;;;26.52;15.55;;;12.20;94.70;;;;;;5075424;28;20040;-84
2024/03/17 04:47:27;;;;;;;26.38;16.63;;;12.20;94.60;;;;;;5076275;28;20549;-84
2024/03/17 04:49:52;;;;;;;25.92;15.40;;;12.20;94.60;;;;;;5075320;28;20488;-84
2024/03/17 04:52:18;;;;;;;22.55;15.27;;;12.30;94.80;;;;;;5076661;28;20366;-83
2024/03/17 04:54:44;;;;;;;22.73;14.98;;;12.20;94.90;;;;;;5061275;28;20081;-83
2024/03/17 04:57:10;;;;;;;24.42;16.17;;;12.20;94.60;;;;;;5078503;28;20056;-82
2024/03/17 04:59:35;;;;;;;21.48;15.15;;;12.20;94.70;;;;;;5057420;28;20060;-83
2024/03/17 05:02:02;;;;;;;24.50;15.65;;;12.20;94.70;;;;;;5075924;28;20032;-83
2024/03/17 05:04:28;;;;;;;21.70;15.00;;;12.20;94.80;;;;;;5075362;28;20052;-84
2024/03/17 05:06:53;;;;;;;28.27;16.17;;;12.20;94.80;;;;;;5074966;28;20044;-83
2024/03/17 05:09:20;;;;;;;23.52;16.42;;;12.30;94.70;;;;;;5075849;28;20041;-82
2024/03/17 05:11:47;;;;;;;28.25;17.95;;;12.30;94.70;;;;;;5066965;28;20036;-83
2024/03/17 05:14:13;;;;;;;28.75;18.02;;;12.20;94.70;;;;;;5076850;28;20090;-84
2024/03/17 05:16:39;;;;;;;25.10;16.77;;;12.20;94.70;;;;;;5076905;28;20056;-83
2024/03/17 05:19:04;;;;;;;26.23;16.92;;;12.20;94.70;;;;;;5094936;28;20035;-82
2024/03/17 05:21:30;;;;;;;28.20;18.48;;;12.20;94.80;;;;;;5094469;28;20055;-83
2024/03/17 05:24:01;;;;;;;27.13;17.10;;;12.20;94.80;;;;;;5094591;28;20194;-83
2024/03/17 05:26:27;;;;;;;28.30;18.63;;;12.20;94.90;;;;;;5094971;28;20028;-83
2024/03/17 05:28:53;;;;;;;24.05;16.13;;;12.30;94.80;;;;;;5094715;28;20038;-83
2024/03/17 05:31:21;;;;;;;22.85;16.90;;;12.40;94.80;;;;;;5094833;28;20044;-83
2024/03/17 05:33:47;;;;;;;23.98;17.42;;;12.40;94.80;;;;;;5094513;28;20075;-83
2024/03/17 05:36:13;;;;;;;25.02;17.75;;;12.30;94.80;;;;;;5093148;28;20035;-85
2024/03/17 05:38:39;;;;;;;28.77;18.15;;;12.30;94.80;;;;;;5075734;28;20028;-84
2024/03/17 05:41:06;;;;;;;22.52;16.98;;;12.30;94.60;;;;;;5094261;28;20044;-84
2024/03/17 05:43:37;;;;;;;24.75;17.27;;;12.30;94.80;;;;;;5097565;28;20024;-84
2024/03/17 05:46:08;;;;;;;25.33;16.80;;;12.30;94.20;;;;;;5099647;28;20090;-82
2024/03/17 05:48:38;;;;;;;25.08;16.50;;;12.40;94.20;;;;;;5096733;28;20097;-82
2024/03/17 05:51:11;;;;;;;23.30;16.33;;;12.40;94.70;;;;;;5099134;28;20040;-84
2024/03/17 05:53:43;;;;;;;27.73;17.00;;;12.50;94.60;;;;;;5098246;28;20054;-84
2024/03/17 05:56:11;;;;;;;22.17;16.63;;;12.60;94.50;;;;;;5099832;28;20046;-84
2024/03/17 05:58:37;;;;;;;27.02;16.30;;;12.60;94.40;;;;;;5094250;28;20036;-83
2024/03/17 06:01:03;;;;;;;24.73;16.83;;;12.60;94.20;;;;;;5093478;28;20036;-81
2024/03/17 06:03:29;;;;;;;23.35;16.05;;;12.70;94.20;;;;;;5093239;28;20034;-82
2024/03/17 06:05:55;;;;;;;22.65;16.15;;;12.70;94.20;;;;;;5074868;28;20119;-82
2024/03/17 06:08:21;;;;;;;23.92;16.20;;;12.80;94.20;;;;;;5093114;28;20552;-81
2024/03/17 06:10:48;;;;;;;23.40;16.38;;;12.70;94.00;;;;;;5093121;28;20040;-82
2024/03/17 06:13:16;;;;;;;24.75;16.10;;;12.80;94.00;;;;;;5092083;28;20036;-82
2024/03/17 06:15:43;;;;;;;20.67;15.45;;;12.90;94.00;;;;;;5093334;28;20036;-83
2024/03/17 06:18:13;;;;;;;21.73;15.10;;;12.90;93.80;;;;;;5093104;28;20048;-82
2024/03/17 06:20:46;;;;;;;23.58;15.07;;;13.40;93.80;;;;;;5093967;28;20028;-83
2024/03/17 06:23:13;;;;;;;22.95;15.30;;;14.20;92.70;;;;;;5096984;28;20074;-84
2024/03/17 06:25:43;;;;;;;24.08;15.05;;;15.00;91.80;;;;;;5111669;28;20099;-84
2024/03/17 06:28:13;;;;;;;22.02;15.82;;;15.70;90.60;;;;;;5104374;28;20028;-86
2024/03/17 06:30:42;;;;;;;21.67;15.27;;;15.90;89.50;;;;;;5097222;28;20066;-85
2024/03/17 06:33:12;;;;;;;21.65;15.90;;;16.50;88.40;;;;;;5095437;28;20039;-84
2024/03/17 06:35:38;;;;;;;26.45;15.05;;;16.90;86.40;;;;;;5093566;28;20086;-84
2024/03/17 06:38:04;;;;;;;22.58;15.02;;;17.10;85.30;;;;;;5096139;28;20028;-83
2024/03/17 06:40:30;;;;;;;21.70;14.75;;;16.70;85.50;;;;;;5103207;28;20036;-83
2024/03/17 06:42:56;;;;;;;21.05;14.68;;;16.30;86.70;;;;;;5098270;28;20032;-82
2024/03/17 06:45:22;;;;;;;25.40;15.50;;;16.80;86.40;;;;;;5096569;28;20441;-85
2024/03/17 06:47:48;;;;;;;22.05;15.23;;;17.10;85.00;;;;;;5095064;28;20024;-82
2024/03/17 06:50:14;;;;;;;19.20;13.43;;;18.10;84.30;;;;;;5095852;28;20446;-83
2024/03/17 06:52:40;;;;;;;21.15;14.45;;;19.00;81.50;;;;;;5094291;28;20036;-82
2024/03/17 06:55:08;;;;;;;18.20;13.02;;;19.50;79.30;;;;;;5093396;28;20560;-83
2024/03/17 06:57:34;;;;;;;19.85;13.57;;;20.30;78.00;;;;;;5093493;28;20103;-84
2024/03/17 07:00:01;;;;;;;22.13;13.93;;;20.80;75.80;;;;;;5093408;28;20115;-83
2024/03/17 07:02:27;;;;;;;18.27;12.48;;;21.40;73.90;;;;;;5077093;28;20096;-83
2024/03/17 07:04:52;;;;;;;17.27;12.10;;;21.70;72.30;;;;;;5093483;28;20070;-82
2024/03/17 07:07:18;;;;;;;17.90;11.48;;;22.00;71.30;;;;;;5093348;28;20032;-83
2024/03/17 07:09:44;;;;;;;18.17;11.02;;;22.40;70.40;;;;;;5092913;28;20468;-85
2024/03/17 07:12:13;;;;;;;16.73;11.00;;;22.60;68.70;;;;;;5093536;28;20039;-82
2024/03/17 07:14:38;;;;;;;17.05;11.60;;;22.60;67.90;;;;;;5094603;28;20039;-82
2024/03/17 07:17:04;;;;;;;20.77;15.88;;;22.40;67.40;;;;;;5093728;28;20064;-84
2024/03/17 07:19:31;;;;;;;17.65;13.48;;;22.70;67.10;;;;;;5092603;28;20028;-85
2024/03/17 07:21:57;;;;;;;18.27;11.65;;;22.70;66.40;;;;;;5075140;28;20032;-86
2024/03/17 07:24:23;;;;;;;17.20;11.68;;;23.00;65.40;;;;;;5093396;28;20036;-84
2024/03/17 07:26:49;;;;;;;17.38;10.20;;;23.40;65.30;;;;;;5075349;28;20032;-85
2024/03/17 07:29:16;;;;;;;17.10;11.90;;;23.80;63.90;;;;;;5095145;28;20044;-86
2024/03/17 07:31:41;;;;;;;18.73;11.88;;;24.10;63.00;;;;;;5097237;28;20085;-85
2024/03/17 07:34:08;;;;;;;16.45;11.20;;;23.90;61.80;;;;;;5094668;28;20426;-85
2024/03/17 07:36:33;;;;;;;17.48;11.20;;;24.10;61.10;;;;;;5093245;28;20082;-85
2024/03/17 07:38:59;;;;;;;17.48;10.73;;;23.00;61.80;;;;;;5096779;28;20036;-85
2024/03/17 07:41:24;;;;;;;17.05;11.68;;;21.70;64.20;;;;;;5095031;28;20091;-85
2024/03/17 07:43:50;;;;;;;18.50;14.25;;;20.50;65.80;;;;;;5075640;28;20044;-85
2024/03/17 07:46:16;;;;;;;18.88;11.50;;;19.80;67.90;;;;;;5103292;28;20066;-87
2024/03/17 07:48:43;;;;;;;17.60;10.48;;;19.30;69.70;;;;;;5098911;28;20035;-87
2024/03/17 07:51:11;;;;;;;16.65;10.48;;;18.70;70.00;;;;;;5092907;28;20043;-83
2024/03/17 07:53:37;;;;;;;18.60;10.93;;;18.30;71.10;;;;;;5093134;28;20391;-78
2024/03/17 07:56:04;;;;;;;18.70;9.90;;;18.00;72.10;;;;;;5093046;28;20044;-85
2024/03/17 07:58:34;;;;;;;13.80;9.73;;;17.70;72.60;;;;;;5093387;28;20105;-86
2024/03/17 08:01:01;;;;;;;15.98;9.50;;;17.20;72.90;;;;;;5113552;28;20048;-87
2024/03/17 08:03:28;;;;;;;16.27;9.65;;;17.00;73.80;;;;;;5111306;28;20450;-87
2024/03/17 08:05:54;;;;;;;16.88;10.00;;;16.70;74.40;;;;;;5098357;28;20107;-87
2024/03/17 08:08:21;;;;;;;14.98;10.30;;;16.60;75.30;;;;;;5103701;28;20070;-86
2024/03/17 08:10:48;;;;;;;14.27;9.38;;;16.50;75.80;;;;;;5101342;28;20048;-85
2024/03/17 08:13:16;;;;;;;15.13;9.23;;;16.40;76.00;;;;;;5098011;28;20040;-83
2024/03/17 08:15:45;;;;;;;13.90;9.07;;;16.40;76.60;;;;;;5096255;28;20441;-83
2024/03/17 08:18:11;;;;;;;14.15;9.30;;;16.20;76.70;;;;;;5094942;28;20120;-74
2024/03/17 08:20:42;;;;;;;15.82;10.00;;;16.20;76.80;;;;;;5095724;28;20046;-78
2024/03/17 08:23:08;;;;;;;16.75;10.25;;;16.10;77.00;;;;;;5095706;28;20383;-76
2024/03/17 08:25:34;;;;;;;14.27;10.13;;;16.20;77.40;;;;;;5095169;28;20036;-80
2024/03/17 08:28:01;;;;;;;16.38;9.85;;;16.20;77.40;;;;;;5094950;28;20036;-76
2024/03/17 08:30:26;;;;;;;14.38;8.75;;;16.20;77.60;;;;;;5094505;28;20032;-72
2024/03/17 08:32:52;;;;;;;17.83;11.20;;;16.30;78.00;;;;;;5098465;28;20100;-80
2024/03/17 08:35:18;;;;;;;17.58;11.90;;;16.30;77.90;;;;;;5095002;28;20033;-80
2024/03/17 08:37:44;;;;;;;18.88;11.52;;;16.30;78.00;;;;;;5094551;28;20111;-81
2024/03/17 08:40:10;;;;;;;18.70;12.27;;;16.20;78.00;;;;;;5094909;28;20035;-76
2024/03/17 08:42:36;;;;;;;19.83;12.70;;;16.20;78.30;;;;;;5094542;28;20144;-76
2024/03/17 08:45:02;;;;;;;16.23;10.68;;;16.20;78.40;;;;;;5094459;28;20060;-74
2024/03/17 08:47:28;;;;;;;18.88;12.40;;;16.30;78.80;;;;;;5094619;28;20032;-84
2024/03/17 08:49:54;;;;;;;16.30;11.30;;;16.30;78.70;;;;;;5094887;28;20054;-80
2024/03/17 08:52:20;;;;;;;14.52;10.32;;;16.40;78.80;;;;;;5076136;28;20032;-81
2024/03/17 08:54:53;;;;;;;18.50;13.52;;;16.50;78.70;;;;;;5103609;28;20032;-81
2024/03/17 08:57:18;;;;;;;15.73;10.63;;;16.50;78.80;;;;;;5100699;28;20043;-81
2024/03/17 08:59:47;;;;;;;17.00;10.10;;;16.60;78.60;;;;;;5078004;28;20032;-81
2024/03/17 09:02:14;;;;;;;15.63;10.60;;;16.50;78.50;;;;;;5102496;28;20487;-81
2024/03/17 09:04:41;;;;;;;16.08;9.38;;;16.50;78.50;;;;;;5094655;28;20028;-80
2024/03/17 09:07:06;;;;;;;12.85;7.97;;;16.50;78.30;;;;;;5094842;28;20039;-81
2024/03/17 09:09:32;;;;;;;12.63;7.35;;;16.50;78.50;;;;;;5096103;28;20064;-82
2024/03/17 09:11:58;;;;;;;13.50;7.60;;;16.50;78.10;;;;;;5095819;28;20032;-88
2024/03/17 09:14:24;;;;;;;11.15;7.45;;;16.50;78.00;;;;;;5098037;28;20039;-90
2024/03/17 09:16:50;;;;;;;14.63;9.07;;;16.50;77.80;;;;;;5098521;28;20075;-86
2024/03/17 09:19:15;;;;;;;13.52;7.88;;;16.50;77.80;;;;;;5095924;28;20097;-87
2024/03/17 09:21:41;;;;;;;14.18;7.53;;;16.60;78.00;;;;;;5096231;28;20059;-86
2024/03/17 09:24:11;;;;;;;11.48;6.70;;;16.70;77.90;;;;;;5097036;28;20051;-85
2024/03/17 09:26:39;;;;;;;10.10;6.15;;;16.80;77.30;;;;;;5098156;28;20035;-81
2024/03/17 09:29:05;;;;;;;11.52;7.90;;;16.80;77.10;;;;;;5096757;28;20162;-82
2024/03/17 09:31:33;;;;;;;11.63;7.35;;;16.90;77.20;;;;;;5097309;28;20060;-83
2024/03/17 09:33:59;;;;;;;12.45;8.23;;;16.90;76.90;;;;;;5095625;28;20031;-81
2024/03/17 09:36:25;;;;;;;11.65;6.38;;;17.00;76.80;;;;;;5093104;28;20454;-82
2024/03/17 09:38:51;;;;;;;9.82;5.95;;;17.10;76.80;;;;;;5094884;28;20028;-77
2024/03/17 09:41:22;;;;;;;10.88;6.03;;;17.00;75.90;;;;;;5080801;28;20122;-84
2024/03/17 09:43:49;;;;;;;9.55;5.85;;;17.00;75.80;;;;;;5095348;28;20052;-80
2024/03/17 09:46:16;;;;;;;10.68;5.18;;;17.10;75.90;;;;;;5095746;28;20028;-84
2024/03/17 09:48:43;;;;;;;9.55;5.60;;;17.20;75.60;;;;;;5094886;28;20032;-82
2024/03/17 09:51:20;;;;;;;11.32;5.78;;;17.20;76.20;;;;;;5094601;28;20139;-84
2024/03/17 09:53:46;;;;;;;8.65;4.95;;;17.30;75.20;;;;;;5094170;28;20073;-80
2024/03/17 09:56:15;;;;;;;9.63;5.32;;;17.40;74.80;;;;;;5092439;28;20045;-80
2024/03/17 09:58:41;;;;;;;7.78;4.70;;;17.40;75.30;;;;;;5074688;28;20567;-81
2024/03/17 10:01:07;;;;;;;10.77;5.28;;;17.50;73.90;;;;;;5092469;28;20024;-80
2024/03/17 10:03:42;;;;;;;12.75;6.05;;;17.50;73.90;;;;;;5097390;28;20043;-80
2024/03/17 10:06:12;;;;;;;9.15;5.65;;;17.60;73.80;;;;;;5093586;28;20036;-80
2024/03/17 10:08:46;;;;;;;12.07;5.75;;;17.60;73.40;;;;;;5093929;28;20483;-82
2024/03/17 10:11:15;;;;;;;9.32;5.45;;;17.70;72.80;;;;;;5093987;28;20036;-80
2024/03/17 10:13:43;;;;;;;8.80;6.07;;;17.80;72.90;;;;;;5094899;28;20082;-81
2024/03/17 10:16:25;;;;;;;10.63;5.80;;;17.80;72.40;;;;;;5092563;28;20031;-80
2024/03/17 10:19:10;;;;;;;9.50;5.35;;;17.90;72.50;;;;;;5092723;28;20040;-80
2024/03/17 10:21:40;;;;;;;11.30;6.07;;;18.10;72.70;;;;;;5092253;28;20024;-81
2024/03/17 10:24:19;;;;;;;8.90;5.68;;;18.20;72.70;;;;;;5093061;28;20388;-81
2024/03/17 10:26:52;;;;;;;9.95;5.82;;;18.30;72.40;;;;;;5092930;28;20555;-80
2024/03/17 10:29:39;;;;;;;9.10;5.88;;;18.40;71.80;;;;;;5093051;28;20040;-80
2024/03/17 10:32:13;;;;;;;12.02;5.88;;;18.50;71.30;;;;;;5092715;28;20036;-81
2024/03/17 10:34:39;;;;;;;11.40;8.13;;;18.60;71.60;;;;;;5092676;28;20042;-80
2024/03/17 10:37:14;;;;;;;8.05;5.28;;;18.70;71.50;;;;;;5093038;28;20032;-79
2024/03/17 10:39:41;;;;;;;9.00;4.60;;;18.70;71.00;;;;;;5093426;28;20054;-81
2024/03/17 10:42:08;;;;;;;7.72;4.68;;;18.80;70.30;;;;;;5093813;28;20035;-81
2024/03/17 10:44:46;;;;;;;7.53;4.45;;;18.80;70.10;;;;;;5075116;28;20380;-81
2024/03/17 10:47:31;;;;;;;9.43;3.90;;;18.80;69.40;;;;;;5093158;28;20032;-80
2024/03/17 10:50:03;;;;;;;6.30;3.55;;;18.90;68.50;;;;;;5092827;28;20036;-79
2024/03/17 10:52:35;;;;;;;7.10;3.60;;;18.90;68.30;;;;;;5074892;28;20460;-80
2024/03/17 10:55:07;;;;;;;8.38;3.28;;;19.10;67.90;;;;;;5074179;28;20032;-79
2024/03/17 10:57:36;;;;;;;8.60;3.42;;;19.10;67.10;;;;;;5092494;28;20037;-81
2024/03/17 11:00:08;;;;;;;6.50;3.55;;;19.20;67.00;;;;;;5092423;28;20093;-79
2024/03/17 11:02:36;;;;;;;4.85;3.03;;;19.40;66.90;;;;;;5092131;28;20082;-80
2024/03/17 11:05:04;;;;;;;6.15;3.03;;;19.50;66.20;;;;;;5092665;28;20502;-79
2024/03/17 11:07:33;;;;;;;6.60;3.22;;;19.60;66.00;;;;;;5092706;28;20429;-81
2024/03/17 11:09:59;;;;;;;5.65;3.25;;;19.70;66.10;;;;;;5100037;28;20040;-79
2024/03/17 11:12:40;;;;;;;11.10;4.78;;;19.90;66.60;;;;;;5092899;28;20036;-80
2024/03/17 11:15:26;;;;;;;8.00;3.00;;;20.00;65.30;;;;;;5096112;28;20041;-77
2024/03/17 11:17:53;;;;;;;6.60;3.25;;;20.10;64.70;;;;;;5095297;28;20059;-79
2024/03/17 11:20:23;;;;;;;7.78;3.53;;;20.30;64.70;;;;;;5092817;28;20388;-79
2024/03/17 11:22:50;;;;;;;7.07;4.18;;;20.40;64.60;;;;;;5092543;28;20114;-80
2024/03/17 11:25:25;;;;;;;8.52;3.60;;;20.50;64.20;;;;;;5092744;28;20111;-78
2024/03/17 11:27:54;;;;;;;6.80;3.58;;;20.50;63.70;;;;;;5092286;28;20047;-78
2024/03/17 11:30:51;;;;;;;7.15;3.90;;;20.60;63.60;;;;;;5092195;28;20040;-81
2024/03/17 11:33:35;;;;;;;6.72;3.47;;;20.70;64.00;;;;;;5092356;28;20030;-80
2024/03/17 11:36:28;;;;;;;6.65;3.45;;;20.70;63.70;;;;;;5096203;28;20114;-80
2024/03/17 11:38:54;;;;;;;7.35;4.53;;;20.80;62.70;;;;;;5096407;28;20044;-81
2024/03/17 11:41:47;;;;;;;7.38;4.30;;;20.80;62.20;;;;;;5096674;28;20056;-81
2024/03/17 11:44:23;;;;;;;7.93;4.40;;;20.80;62.90;;;;;;5097944;28;20032;-82
2024/03/17 11:46:55;;;;;;;8.90;4.03;;;20.90;62.90;;;;;;5101463;28;20035;-81
2024/03/17 11:49:29;;;;;;;7.10;3.78;;;21.00;62.40;;;;;;5078113;28;20040;-79
2024/03/17 11:51:59;;;;;;;5.30;3.17;;;21.10;62.00;;;;;;5096467;28;20040;-81
2024/03/17 11:54:29;;;;;;;7.32;3.00;;;21.10;60.20;;;;;;5096268;28;20028;-80
2024/03/17 11:57:00;;;;;;;7.65;3.63;;;21.10;60.00;;;;;;5096262;28;20039;-80
2024/03/17 11:59:26;;;;;;;8.30;3.58;;;21.10;59.60;;;;;;5096256;28;20392;-80
2024/03/17 12:01:52;;;;;;;5.90;3.20;;;21.20;59.50;;;;;;5097037;28;20062;-80
2024/03/17 12:04:20;;;;;;;5.90;3.15;;;21.30;59.60;;;;;;5097129;28;20032;-82
2024/03/17 12:06:55;;;;;;;6.57;3.50;;;21.30;59.20;;;;;;5097061;28;20127;-81
2024/03/17 12:09:27;;;;;;;7.57;3.25;;;21.30;59.20;;;;;;5097029;28;20473;-81
2024/03/17 12:12:20;;;;;;;7.20;3.55;;;21.40;58.90;;;;;;5096116;28;20044;-80
2024/03/17 12:14:47;;;;;;;8.10;3.83;;;21.50;59.20;;;;;;5096624;28;20036;-80
2024/03/17 12:17:15;;;;;;;11.30;3.88;;;21.50;59.10;;;;;;5096150;28;20414;-81
2024/03/17 12:19:44;;;;;;;7.85;3.70;;;21.70;59.10;;;;;;5096227;28;20032;-80
2024/03/17 12:22:19;;;;;;;6.68;3.97;;;21.70;58.70;;;;;;5095732;28;20036;-81
2024/03/17 12:24:47;;;;;;;7.07;3.65;;;21.80;59.20;;;;;;5096624;28;20505;-82
2024/03/17 12:27:18;;;;;;;6.45;3.38;;;21.70;58.80;;;;;;5096023;28;20039;-80
2024/03/17 12:29:44;;;;;;;15.10;4.60;;;21.70;59.10;;;;;;5096226;28;20076;-80
2024/03/17 12:32:11;;;;;;;7.80;4.80;;;21.80;59.30;;;;;;5095676;28;20523;-80
2024/03/17 12:34:37;;;;;;;8.55;4.28;;;21.80;58.70;;;;;;5095805;28;20024;-79